createdAt,value
2023-02-24T00:01:52.787Z,84.27
2023-02-24T00:05:57.671Z,84.26
2023-02-24T00:10:02.914Z,84.75
2023-02-24T00:14:05.815Z,85.10
2023-02-24T00:18:11.210Z,85.26
2023-02-24T00:22:14.342Z,85.56
2023-02-24T00:26:17.513Z,86.12
2023-02-24T00:30:21.723Z,85.43
2023-02-24T00:34:22.338Z,85.23
2023-02-24T00:38:25.732Z,85.30
2023-02-24T00:42:29.015Z,84.70
2023-02-24T00:46:31.456Z,84.65
2023-02-24T00:50:35.992Z,84.24
2023-02-24T00:54:53.680Z,84.91
2023-02-24T00:58:56.488Z,84.63
2023-02-24T01:02:59.818Z,84.67
2023-02-24T01:07:03.856Z,85.12
2023-02-24T01:11:20.820Z,85.20
2023-02-24T01:15:26.491Z,84.35
2023-02-24T01:19:32.810Z,84.10
2023-02-24T01:23:36.180Z,84.09
2023-02-24T01:27:43.429Z,84.35
2023-02-24T01:31:45.233Z,84.74
2023-02-24T01:35:47.192Z,83.89
2023-02-24T01:39:48.539Z,84.10
2023-02-24T01:44:11.547Z,83.59
2023-02-24T01:48:17.412Z,83.29
2023-02-24T01:52:25.098Z,83.17
2023-02-24T01:56:25.714Z,84.05
2023-02-24T02:00:38.105Z,84.50
2023-02-24T02:04:50.148Z,84.42
2023-02-24T02:08:52.480Z,84.57
2023-02-24T02:12:54.048Z,85.50
2023-02-24T02:17:16.142Z,84.97
2023-02-24T02:21:46.319Z,84.60
2023-02-24T02:26:18.977Z,83.04
2023-02-24T02:30:51.236Z,84.75
2023-02-24T02:35:04.419Z,84.84
2023-02-24T02:39:19.601Z,85.28
2023-02-24T02:43:31.823Z,85.84
2023-02-24T02:47:43.505Z,85.54
2023-02-24T02:51:55.253Z,85.35
2023-02-24T02:56:03.073Z,85.17
2023-02-24T03:00:14.322Z,85.32
2023-02-24T03:04:23.111Z,84.59
2023-02-24T03:08:34.537Z,84.81
2023-02-24T03:12:37.506Z,83.70
2023-02-24T03:16:40.311Z,84.29
2023-02-24T03:20:47.800Z,84.17
2023-02-24T03:24:51.901Z,83.65
2023-02-24T03:29:10.320Z,83.67
2023-02-24T03:33:24.182Z,83.52
2023-02-24T03:37:28.197Z,83.03
2023-02-24T03:41:42.642Z,83.88
2023-02-24T03:45:46.583Z,83.33
2023-02-24T03:49:47.407Z,83.11
2023-02-24T03:54:09.424Z,83.89
2023-02-24T03:58:27.025Z,83.27
2023-02-24T04:02:34.150Z,83.58
2023-02-24T04:06:50.005Z,83.16
2023-02-24T04:10:58.821Z,83.64
2023-02-24T04:15:23.926Z,84.40
2023-02-24T04:19:31.969Z,83.74
2023-02-24T04:23:38.792Z,83.66
2023-02-24T04:27:41.517Z,83.20
2023-02-24T04:31:58.791Z,82.96
2023-02-24T04:35:59.708Z,82.02
2023-02-24T04:40:02.318Z,82.45
2023-02-24T04:44:02.958Z,83.08
2023-02-24T04:48:12.818Z,81.52
2023-02-24T04:52:15.497Z,81.90
2023-02-24T04:56:18.844Z,82.01
2023-02-24T05:00:26.505Z,82.04
2023-02-24T05:04:36.088Z,81.78
2023-02-24T05:08:39.172Z,82.62
2023-02-24T05:12:42.484Z,83.51
2023-02-24T05:16:44.729Z,84.61
2023-02-24T05:21:03.583Z,83.45
2023-02-24T05:25:04.543Z,83.25
2023-02-24T05:29:07.445Z,84.92
2023-02-24T05:33:08.429Z,84.93
2023-02-24T05:37:12.088Z,84.95
2023-02-24T05:41:17.140Z,85.62
2023-02-24T05:45:18.834Z,86.47
2023-02-24T05:49:23.977Z,86.37
2023-02-24T05:53:27.604Z,86.29
2023-02-24T05:57:33.187Z,85.80
2023-02-24T06:01:35.992Z,86.32
2023-02-24T06:05:39.853Z,86.46
2023-02-24T06:09:45.318Z,85.55
2023-02-24T06:13:48.616Z,85.44
2023-02-24T06:17:49.843Z,85.12
2023-02-24T06:21:53.016Z,86.23
2023-02-24T06:25:59.492Z,85.75
2023-02-24T06:30:00.325Z,85.94
2023-02-24T06:34:00.741Z,85.57
2023-02-24T06:38:04.616Z,84.77
2023-02-24T06:42:10.780Z,83.98
2023-02-24T06:46:13.628Z,83.40
2023-02-24T06:50:15.334Z,83.71
2023-02-24T06:54:15.939Z,84.00
2023-02-24T06:58:24.369Z,82.69
2023-02-24T07:02:29.771Z,82.09
2023-02-24T07:06:31.191Z,81.47
2023-02-24T07:10:31.992Z,81.35
2023-02-24T07:14:37.184Z,80.85
2023-02-24T07:18:41.004Z,81.03
2023-02-24T07:22:42.331Z,81.79
2023-02-24T07:26:51.782Z,80.25
2023-02-24T07:30:55.315Z,77.85
2023-02-24T07:34:55.850Z,78.91
2023-02-24T07:38:58.231Z,78.67
2023-02-24T07:42:58.858Z,78.00
2023-02-24T07:47:08.108Z,75.84
2023-02-24T07:51:10.676Z,74.99
2023-02-24T07:55:14.060Z,74.91
2023-02-24T07:59:19.503Z,74.04
2023-02-24T08:03:23.926Z,74.03
2023-02-24T08:07:30.613Z,74.51
2023-02-24T09:16:16.864Z,99.00
2023-02-24T09:20:33.952Z,93.19
2023-02-24T09:24:35.757Z,91.86
2023-02-24T09:28:48.840Z,89.91
2023-02-24T09:33:01.300Z,88.66
2023-02-24T09:37:04.627Z,86.38
2023-02-24T09:41:18.291Z,86.54
2023-02-24T09:45:33.611Z,85.48
2023-02-24T09:49:50.576Z,84.41
2023-02-24T09:54:06.384Z,84.84
2023-02-24T09:58:41.806Z,84.68
2023-02-24T10:03:00.515Z,84.10
2023-02-24T10:07:12.975Z,85.05
2023-02-24T10:11:16.023Z,84.24
2023-02-24T10:15:42.869Z,84.27
2023-02-24T10:19:44.158Z,84.29
2023-02-24T10:24:05.880Z,84.05
2023-02-24T10:28:24.723Z,82.91
2023-02-24T10:32:41.412Z,81.19
2023-02-24T10:36:47.872Z,78.92
2023-02-24T10:40:58.252Z,76.93
2023-02-24T10:45:19.643Z,74.29
2023-02-24T10:49:25.343Z,73.78
2023-02-24T10:53:36.145Z,74.42
2023-02-24T10:57:58.957Z,74.38
2023-02-24T11:02:24.974Z,73.92
2023-02-24T11:06:42.476Z,73.00
2023-02-24T11:11:07.181Z,74.13
2023-02-24T11:15:52.129Z,73.10
2023-02-24T11:20:11.116Z,71.29
2023-02-24T11:24:21.832Z,69.30
2023-02-24T11:28:43.610Z,66.21
2023-02-24T11:33:29.395Z,65.46
2023-02-24T11:37:43.513Z,66.01
2023-02-24T11:41:53.492Z,66.99
2023-02-24T11:46:02.291Z,68.49
2023-02-24T11:50:32.695Z,67.67
2023-02-24T11:54:42.066Z,68.84
2023-02-24T11:58:49.456Z,69.68
2023-02-24T12:03:04.039Z,70.87
2023-02-24T12:07:21.998Z,72.34
2023-02-24T12:11:36.484Z,72.11
2023-02-24T12:15:49.664Z,72.74
2023-02-24T12:20:07.877Z,73.74
2023-02-24T12:24:17.771Z,74.54
2023-02-24T12:28:37.030Z,74.01
2023-02-24T12:33:00.330Z,72.90
2023-02-24T12:37:30.456Z,74.54
2023-02-24T12:41:57.778Z,73.67
2023-02-24T12:46:08.622Z,74.17
2023-02-24T12:50:34.267Z,74.25
2023-02-24T12:54:48.530Z,74.61
2023-02-24T13:04:43.343Z,72.43
2023-02-24T13:08:58.719Z,70.93
2023-02-24T13:13:12.350Z,70.96
2023-02-24T13:17:29.742Z,70.58
2023-02-24T13:21:32.835Z,72.62
2023-02-24T13:25:41.412Z,73.32
2023-02-24T13:29:55.120Z,76.83
2023-02-24T13:34:03.837Z,77.56
2023-02-24T13:38:40.412Z,75.31
2023-02-24T13:42:43.353Z,74.84
2023-02-24T13:47:22.813Z,72.10
2023-02-24T13:58:20.495Z,66.83
2023-02-24T14:02:44.667Z,68.50
2023-02-24T14:06:57.080Z,69.17
2023-02-24T14:11:03.831Z,68.91
2023-02-24T14:15:08.565Z,66.33
2023-02-24T14:19:17.664Z,64.40
2023-02-24T14:23:34.402Z,63.48
2023-02-24T14:27:35.351Z,63.73
2023-02-24T14:31:37.333Z,64.08
2023-02-24T14:35:44.835Z,65.01
2023-02-24T14:39:54.919Z,64.37
2023-02-24T14:43:57.457Z,64.04
2023-02-24T14:48:03.053Z,65.21
2023-02-24T14:52:14.441Z,66.97
2023-02-24T14:56:20.868Z,67.72
2023-02-24T15:00:28.221Z,67.86
2023-02-24T15:04:37.991Z,69.11
2023-02-24T15:08:45.204Z,70.07
2023-02-24T15:12:54.797Z,70.71
2023-02-24T15:17:01.535Z,69.59
2023-02-24T15:21:11.447Z,68.33
2023-02-24T16:21:11.659Z,78.47
2023-02-24T16:25:17.634Z,77.89
2023-02-24T16:29:19.591Z,77.48
2023-02-24T16:33:24.014Z,76.59
2023-02-24T16:37:31.127Z,76.38
2023-02-24T16:41:31.540Z,76.21
2023-02-24T16:45:35.867Z,75.09
2023-02-24T16:49:37.677Z,74.93
2023-02-24T16:53:41.867Z,74.64
2023-02-24T16:57:43.418Z,74.68
2023-02-24T17:01:44.175Z,73.84
2023-02-24T17:05:44.522Z,72.43
2023-02-24T17:09:48.159Z,72.67
2023-02-24T17:13:48.980Z,72.78
2023-02-24T17:17:51.212Z,72.62
2023-02-24T17:21:51.683Z,72.23
2023-02-24T17:25:58.687Z,72.28
2023-02-24T17:29:59.482Z,71.76
2023-02-24T17:33:59.885Z,71.75
2023-02-24T17:38:00.717Z,71.34
2023-02-24T17:42:05.472Z,71.25
2023-02-24T17:46:07.936Z,71.56
2023-02-24T17:50:10.484Z,72.15
2023-02-24T17:54:11.242Z,72.50
2023-02-24T17:58:14.174Z,71.85
2023-02-24T18:02:15.244Z,72.23
2023-02-24T18:06:16.176Z,72.48
2023-02-24T18:10:16.775Z,71.36
2023-02-24T18:14:20.160Z,71.20
2023-02-24T18:18:20.631Z,71.48
2023-02-24T18:22:20.903Z,70.80
2023-02-24T18:26:24.216Z,71.04
2023-02-24T18:30:27.341Z,70.46
2023-02-24T18:35:19.558Z,68.14
2023-02-24T18:39:40.385Z,67.80
2023-02-24T18:49:47.377Z,66.45
2023-02-24T18:53:52.450Z,66.79
2023-02-24T18:57:53.767Z,66.60
2023-02-24T19:01:57.284Z,66.49
2023-02-24T19:06:02.415Z,66.37
2023-02-24T19:10:02.958Z,66.81
2023-02-24T19:14:04.197Z,66.27
2023-02-24T19:18:24.521Z,66.55
2023-02-24T19:22:27.902Z,67.11
2023-02-24T19:26:30.235Z,67.13
2023-02-24T19:30:35.057Z,67.28
2023-02-24T19:34:35.386Z,67.07
2023-02-24T19:38:39.367Z,66.74
2023-02-24T19:42:40.632Z,66.60
2023-02-24T19:46:43.600Z,66.71
2023-02-24T19:50:46.360Z,67.37
2023-02-24T19:54:49.338Z,68.03
2023-02-24T19:58:50.131Z,68.49
2023-02-24T20:02:51.665Z,71.39
2023-02-24T20:06:53.817Z,77.27
2023-02-24T20:11:07.166Z,80.61
2023-02-24T20:15:09.787Z,83.71
2023-02-24T20:19:13.375Z,86.54
2023-02-24T20:23:13.787Z,87.53
2023-02-24T20:27:17.761Z,88.21
2023-02-24T20:31:21.298Z,89.07
2023-02-24T20:35:26.341Z,90.00
2023-02-24T20:39:27.568Z,90.79
2023-02-24T20:43:31.381Z,91.49
2023-02-24T20:47:32.276Z,91.66
2023-02-24T20:51:35.880Z,92.52
2023-02-24T20:55:36.489Z,92.91
2023-02-24T20:59:49.239Z,93.47
2023-02-24T21:03:55.697Z,95.27
2023-02-24T21:07:57.348Z,95.38
2023-02-24T21:11:57.764Z,95.32
2023-02-24T21:16:01.210Z,95.88
2023-02-24T21:20:01.918Z,97.12
2023-02-24T21:24:02.797Z,97.51
2023-02-24T21:28:03.067Z,97.45
2023-02-24T21:32:06.721Z,98.05
2023-02-24T21:36:11.694Z,97.63
2023-02-24T21:40:18.128Z,98.54
2023-02-24T21:44:19.482Z,98.00
2023-02-24T21:48:24.188Z,98.51
2023-02-24T21:52:25.031Z,99.30
2023-02-24T21:56:29.444Z,100.00
2023-02-24T22:00:30.455Z,100.00
2023-02-24T22:04:33.917Z,100.00
2023-02-24T22:08:34.410Z,100.00
2023-02-24T22:12:37.708Z,100.00
2023-02-24T22:16:38.406Z,100.00
2023-02-24T22:20:42.016Z,100.00
2023-02-24T22:24:43.218Z,100.00
2023-02-24T22:28:47.332Z,100.00
2023-02-24T22:32:47.864Z,100.00
2023-02-24T22:36:50.952Z,100.00
2023-02-24T22:41:01.867Z,100.00
2023-02-24T22:45:02.813Z,100.00
2023-02-24T22:49:03.665Z,100.00
2023-02-24T22:53:06.599Z,100.00
2023-02-24T22:57:07.221Z,100.00
2023-02-24T23:01:13.326Z,100.00
2023-02-24T23:05:13.655Z,100.00
2023-02-24T23:09:20.104Z,100.00
2023-02-24T23:13:21.237Z,100.00
2023-02-24T23:17:22.008Z,100.00
2023-02-24T23:21:25.948Z,100.00
2023-02-24T23:25:31.564Z,100.00
2023-02-24T23:29:32.585Z,100.00
2023-02-24T23:33:33.608Z,100.00
2023-02-24T23:37:33.896Z,100.00
2023-02-24T23:41:38.332Z,99.73
2023-02-24T23:45:40.738Z,99.77
2023-02-24T23:49:48.465Z,98.86
2023-02-24T23:53:51.252Z,98.76
2023-02-24T23:57:54.654Z,98.73
